Time;durP1;ratioP1;P1;durP2;ratioP2;P2;SDS_P1;SDS_P2;PMS_P1;PMS_P2;Temp;Humidity;BMP_temperature;BMP_pressure;BME280_temperature;BME280_humidity;BME280_pressure;Samples;Min_cycle;Max_cycle;Signal;HPM_P1;HPM_P2
2023/02/13 00:00:26;;;;;;;14.40;10.07;;;;;;;;;;5087307;28;20351;-81
2023/02/13 00:02:52;;;;;;;14.33;10.20;;;;;;;;;;5087625;28;20281;-80
2023/02/13 00:05:19;;;;;;;17.63;10.57;;;;;;;;;;5073752;28;20273;-81
2023/02/13 00:07:46;;;;;;;13.87;9.77;;;;;;;;;;5091739;28;20212;-81
2023/02/13 00:10:13;;;;;;;20.37;11.53;;;;;;;;;;5105517;28;20225;-80
2023/02/13 00:12:41;;;;;;;15.03;9.87;;;;;;;;;;5111606;28;20253;-80
2023/02/13 00:15:09;;;;;;;15.37;9.50;;;;;;;;;;5112022;28;20206;-79
2023/02/13 00:17:36;;;;;;;16.30;10.07;;;;;;;;;;5091710;28;20253;-80
2023/02/13 00:20:03;;;;;;;14.37;10.70;;;;;;;;;;5105571;28;20230;-80
2023/02/13 00:22:30;;;;;;;14.67;10.73;;;;;;;;;;5112434;28;20204;-79
2023/02/13 00:24:56;;;;;;;14.63;9.00;;;;;;;;;;5110925;28;20218;-80
2023/02/13 00:27:23;;;;;;;13.60;9.63;;;;;;;;;;5091714;28;20612;-80
2023/02/13 00:29:51;;;;;;;13.43;9.90;;;;;;;;;;5105484;28;20215;-79
2023/02/13 00:32:18;;;;;;;12.83;9.87;;;;;;;;;;5111670;28;20715;-80
2023/02/13 00:34:45;;;;;;;16.07;9.63;;;;;;;;;;5098089;28;20717;-79
2023/02/13 00:37:11;;;;;;;12.40;8.47;;;;;;;;;;5103588;28;20211;-78
2023/02/13 00:39:38;;;;;;;13.93;10.03;;;;;;;;;;5092625;28;20297;-78
2023/02/13 00:42:05;;;;;;;14.07;8.87;;;;;;;;;;5103207;28;20632;-79
2023/02/13 00:44:32;;;;;;;14.90;9.13;;;;;;;;;;5091386;28;20243;-79
2023/02/13 00:47:00;;;;;;;10.80;8.50;;;;;;;;;;5099737;28;20734;-78
2023/02/13 00:49:27;;;;;;;13.13;7.83;;;;;;;;;;5098228;28;20287;-79
2023/02/13 00:51:53;;;;;;;9.93;7.73;;;;;;;;;;5101729;28;20262;-78
2023/02/13 00:54:20;;;;;;;16.27;9.43;;;;;;;;;;5093501;28;20204;-79
2023/02/13 00:56:47;;;;;;;13.13;8.87;;;;;;;;;;5111575;28;20631;-78
2023/02/13 00:59:14;;;;;;;11.90;8.00;;;;;;;;;;5095120;28;20206;-79
2023/02/13 01:01:40;;;;;;;16.30;8.70;;;;;;;;;;5100959;28;20227;-78
2023/02/13 01:04:09;;;;;;;11.40;8.53;;;;;;;;;;5097447;28;20203;-79
2023/02/13 01:06:35;;;;;;;8.57;7.13;;;;;;;;;;5100807;28;20254;-78
2023/02/13 01:09:03;;;;;;;12.67;8.13;;;;;;;;;;5104724;28;20197;-78
2023/02/13 01:11:30;;;;;;;11.90;7.90;;;;;;;;;;5090462;28;20257;-79
2023/02/13 01:13:57;;;;;;;11.17;8.33;;;;;;;;;;5094924;28;20260;-79
2023/02/13 01:16:24;;;;;;;13.30;8.60;;;;;;;;;;5100290;28;20208;-79
2023/02/13 01:18:51;;;;;;;12.97;8.90;;;;;;;;;;5090531;28;20208;-79
2023/02/13 01:21:22;;;;;;;16.53;9.30;;;;;;;;;;5102394;28;20227;-79
2023/02/13 01:23:48;;;;;;;11.23;8.53;;;;;;;;;;5091852;28;20287;-79
2023/02/13 01:26:17;;;;;;;14.10;8.43;;;;;;;;;;5103232;28;20234;-79
2023/02/13 01:28:44;;;;;;;13.40;9.13;;;;;;;;;;5109774;28;20200;-79
2023/02/13 01:31:11;;;;;;;11.93;9.00;;;;;;;;;;5107851;28;20260;-79
2023/02/13 01:33:38;;;;;;;13.00;8.93;;;;;;;;;;5095665;28;20264;-79
2023/02/13 01:36:10;;;;;;;11.13;7.90;;;;;;;;;;5107988;28;20583;-79
2023/02/13 01:38:39;;;;;;;11.90;8.33;;;;;;;;;;5102026;28;20195;-79
2023/02/13 01:41:06;;;;;;;15.13;8.90;;;;;;;;;;5100448;28;20729;-79
2023/02/13 01:43:50;;;;;;;11.70;8.17;;;;;;;;;;5094791;28;20212;-79
2023/02/13 01:46:21;;;;;;;9.20;6.67;;;;;;;;;;5095145;28;20200;-79
2023/02/13 01:48:49;;;;;;;10.83;7.70;;;;;;;;;;5105470;28;20202;-79
2023/02/13 01:51:18;;;;;;;11.53;8.07;;;;;;;;;;5096949;28;20637;-79
2023/02/13 01:53:48;;;;;;;11.53;8.37;;;;;;;;;;5094163;28;20201;-79
2023/02/13 01:56:20;;;;;;;16.27;10.63;;;;;;;;;;5099633;28;20256;-79
2023/02/13 01:58:49;;;;;;;17.43;10.30;;;;;;;;;;5114683;28;20208;-79
2023/02/13 02:01:16;;;;;;;12.13;9.10;;;;;;;;;;5108199;28;20257;-79
2023/02/13 02:03:49;;;;;;;10.03;8.10;;;;;;;;;;5094480;28;20337;-79
2023/02/13 02:06:19;;;;;;;10.43;7.87;;;;;;;;;;5094380;28;20633;-79
2023/02/13 02:08:49;;;;;;;13.77;9.50;;;;;;;;;;5109337;28;20207;-79
2023/02/13 02:11:20;;;;;;;12.03;7.90;;;;;;;;;;5105815;28;20253;-79
2023/02/13 02:13:47;;;;;;;11.77;8.23;;;;;;;;;;5107631;28;20682;-79
2023/02/13 02:16:14;;;;;;;12.13;9.27;;;;;;;;;;5103038;28;20678;-79
2023/02/13 02:18:43;;;;;;;13.87;8.13;;;;;;;;;;5114202;28;20207;-79
2023/02/13 02:21:43;;;;;;;11.80;8.00;;;;;;;;;;5108225;28;20428;-80
2023/02/13 02:24:34;;;;;;;12.97;8.73;;;;;;;;;;5094541;28;20192;-79
2023/02/13 02:27:38;;;;;;;11.70;8.67;;;;;;;;;;5107262;28;20211;-79
2023/02/13 02:30:40;;;;;;;11.37;8.60;;;;;;;;;;5093470;28;20316;-80
2023/02/13 02:33:17;;;;;;;9.60;8.37;;;;;;;;;;5095483;28;20237;-80
2023/02/13 02:35:47;;;;;;;13.40;8.40;;;;;;;;;;5114436;28;20273;-79
2023/02/13 02:38:27;;;;;;;11.73;8.53;;;;;;;;;;5113884;28;20569;-80
2023/02/13 02:41:01;;;;;;;11.23;7.83;;;;;;;;;;5101176;28;20224;-80
2023/02/13 02:43:34;;;;;;;11.70;7.13;;;;;;;;;;5100642;28;20195;-80
2023/02/13 02:46:07;;;;;;;12.63;7.90;;;;;;;;;;5109155;28;20219;-80
2023/02/13 02:51:33;;;;;;;10.67;7.90;;;;;;;;;;5107240;28;20203;-80
2023/02/13 02:55:05;;;;;;;11.63;8.13;;;;;;;;;;5107277;28;20199;-80
2023/02/13 02:56:51;;;;;;;10.50;8.10;;;;;;;;;;5103798;28;20215;-80
2023/02/13 03:07:35;;;;;;;10.43;7.83;;;;;;;;;;5093422;28;20218;-80
2023/02/13 03:22:17;;;;;;;8.77;6.77;;;;;;;;;;5109251;28;20703;-80
2023/02/13 03:24:06;;;;;;;32.77;19.27;;;;;;;;;;5113323;28;20206;-79
2023/02/13 03:26:50;;;;;;;25.57;14.10;;;;;;;;;;5113009;28;20214;-79
2023/02/13 03:32:20;;;;;;;16.50;10.83;;;;;;;;;;5099863;28;20207;-79
2023/02/13 03:37:56;;;;;;;27.13;12.83;;;;;;;;;;5030303;28;20721;-80
2023/02/13 03:40:28;;;;;;;17.30;10.93;;;;;;;;;;5088778;28;20256;-79
2023/02/13 03:43:02;;;;;;;17.30;9.17;;;;;;;;;;5102372;28;20288;-81
2023/02/13 03:51:04;;;;;;;10.97;7.43;;;;;;;;;;5078761;28;20701;-80
2023/02/13 03:53:34;;;;;;;9.97;7.13;;;;;;;;;;5112627;28;20211;-80
2023/02/13 04:01:36;;;;;;;43.10;21.33;;;;;;;;;;5100294;28;20262;-80
2023/02/13 04:04:07;;;;;;;26.97;15.47;;;;;;;;;;5097607;28;20578;-80
2023/02/13 04:06:37;;;;;;;25.03;14.10;;;;;;;;;;5099399;28;20208;-80
2023/02/13 04:09:05;;;;;;;20.97;12.00;;;;;;;;;;5112158;28;20195;-80
2023/02/13 04:11:35;;;;;;;16.13;10.33;;;;;;;;;;5108598;28;20216;-80
2023/02/13 04:14:06;;;;;;;17.43;10.13;;;;;;;;;;5111569;28;20695;-80
2023/02/13 04:16:36;;;;;;;14.77;8.00;;;;;;;;;;5105418;28;20196;-80
2023/02/13 04:19:05;;;;;;;15.33;10.10;;;;;;;;;;5105350;28;20216;-80
2023/02/13 04:21:33;;;;;;;17.17;10.10;;;;;;;;;;5104269;28;20238;-80
2023/02/13 04:23:59;;;;;;;12.53;9.07;;;;;;;;;;5091787;28;20223;-80
2023/02/13 04:26:33;;;;;;;12.07;9.07;;;;;;;;;;5091638;28;20253;-80
2023/02/13 04:29:00;;;;;;;11.63;8.57;;;;;;;;;;5091315;28;20556;-80
2023/02/13 04:31:26;;;;;;;17.83;10.03;;;;;;;;;;5100745;28;20701;-80
2023/02/13 04:33:53;;;;;;;14.87;9.60;;;;;;;;;;5098663;28;20289;-80
2023/02/13 04:36:20;;;;;;;16.77;10.90;;;;;;;;;;5102164;28;20625;-80
2023/02/13 04:38:46;;;;;;;12.17;8.87;;;;;;;;;;5091493;28;20257;-79
2023/02/13 04:41:13;;;;;;;16.07;9.23;;;;;;;;;;5091472;28;20216;-80
2023/02/13 04:43:42;;;;;;;12.37;8.57;;;;;;;;;;5105171;28;20205;-80
2023/02/13 04:46:08;;;;;;;18.20;12.27;;;;;;;;;;5101109;28;20223;-78
2023/02/13 04:48:35;;;;;;;21.87;12.37;;;;;;;;;;5107251;28;20274;-78
2023/02/13 04:51:02;;;;;;;16.93;11.77;;;;;;;;;;5096272;28;20722;-79
2023/02/13 04:53:28;;;;;;;18.07;11.70;;;;;;;;;;5111083;28;20222;-80
2023/02/13 04:55:55;;;;;;;16.37;12.10;;;;;;;;;;5111642;28;20586;-80
2023/02/13 04:58:22;;;;;;;14.93;12.23;;;;;;;;;;5097745;28;20260;-79
2023/02/13 05:00:50;;;;;;;17.47;11.67;;;;;;;;;;5110465;28;20210;-80
2023/02/13 05:03:17;;;;;;;16.03;10.33;;;;;;;;;;5094026;28;20333;-79
2023/02/13 05:05:44;;;;;;;16.90;11.13;;;;;;;;;;5090798;28;20200;-80
2023/02/13 05:08:11;;;;;;;17.57;11.03;;;;;;;;;;5094769;28;20223;-79
2023/02/13 05:10:40;;;;;;;16.20;9.60;;;;;;;;;;5104091;28;20208;-80
2023/02/13 05:13:07;;;;;;;16.70;11.63;;;;;;;;;;5110006;28;20199;-80
2023/02/13 05:15:34;;;;;;;22.53;16.20;;;;;;;;;;5101654;28;20200;-79
2023/02/13 05:18:02;;;;;;;39.53;25.77;;;;;;;;;;5107370;28;20214;-79
2023/02/13 05:20:29;;;;;;;53.97;30.40;;;;;;;;;;5111029;28;20204;-83
2023/02/13 05:25:37;;;;;;;44.77;30.67;;;;;;;;;;5077714;28;20225;-80
2023/02/13 05:29:17;;;;;;;35.07;23.13;;;;;;;;;;5090859;28;20277;-81
2023/02/13 05:30:52;;;;;;;29.23;16.70;;;;;;;;;;5105676;28;20701;-80
2023/02/13 05:33:20;;;;;;;17.43;13.60;;;;;;;;;;5103103;28;20565;-80
2023/02/13 05:35:47;;;;;;;11.57;9.17;;;;;;;;;;5092800;28;20254;-80
2023/02/13 05:38:13;;;;;;;11.67;7.90;;;;;;;;;;5101625;28;20199;-79
2023/02/13 05:40:40;;;;;;;13.40;9.27;;;;;;;;;;5104879;28;20253;-81
2023/02/13 05:43:07;;;;;;;11.43;7.50;;;;;;;;;;5100127;28;20231;-82
2023/02/13 05:45:34;;;;;;;14.53;8.70;;;;;;;;;;5107971;28;20227;-80
2023/02/13 05:48:00;;;;;;;35.50;23.67;;;;;;;;;;5090934;28;20208;-85
2023/02/13 05:50:28;;;;;;;41.53;26.30;;;;;;;;;;5092658;28;20200;-81
2023/02/13 05:52:55;;;;;;;16.90;11.30;;;;;;;;;;5111540;28;20212;-80
2023/02/13 05:55:22;;;;;;;14.23;9.23;;;;;;;;;;5079067;28;20203;-81
2023/02/13 05:57:49;;;;;;;12.57;8.83;;;;;;;;;;5110704;28;20219;-81
2023/02/13 06:00:17;;;;;;;12.87;9.33;;;;;;;;;;5097183;28;20211;-80
2023/02/13 06:02:43;;;;;;;19.53;12.30;;;;;;;;;;5110859;28;20234;-81
2023/02/13 06:05:10;;;;;;;15.40;10.73;;;;;;;;;;5093080;28;20732;-81
2023/02/13 06:07:38;;;;;;;22.47;15.60;;;;;;;;;;5090462;28;20207;-81
2023/02/13 06:10:09;;;;;;;27.60;17.03;;;;;;;;;;5094880;28;20207;-81
2023/02/13 06:12:36;;;;;;;26.20;16.53;;;;;;;;;;5097724;28;20586;-81
2023/02/13 06:15:04;;;;;;;22.23;13.20;;;;;;;;;;5101157;28;20208;-81
2023/02/13 06:17:30;;;;;;;18.90;13.23;;;;;;;;;;5101385;28;20199;-81
2023/02/13 06:19:57;;;;;;;17.33;11.03;;;;;;;;;;5114813;28;20211;-81
2023/02/13 06:22:24;;;;;;;16.67;11.93;;;;;;;;;;5093812;28;20220;-81
2023/02/13 06:24:52;;;;;;;12.23;9.43;;;;;;;;;;5107662;28;20222;-81
2023/02/13 06:27:19;;;;;;;14.70;10.13;;;;;;;;;;5101506;28;20207;-81
2023/02/13 06:29:46;;;;;;;16.53;10.77;;;;;;;;;;5113490;28;20199;-81
2023/02/13 06:32:13;;;;;;;19.13;11.67;;;;;;;;;;5101651;28;20297;-81
2023/02/13 06:34:40;;;;;;;49.30;27.23;;;;;;;;;;5114335;28;20240;-82
2023/02/13 06:37:06;;;;;;;215.50;78.37;;;;;;;;;;5106634;28;20192;-82
2023/02/13 06:39:34;;;;;;;148.10;66.73;;;;;;;;;;5108063;28;20207;-84
2023/02/13 06:42:02;;;;;;;30.10;21.43;;;;;;;;;;5101752;28;20219;-83
2023/02/13 06:44:29;;;;;;;35.17;24.50;;;;;;;;;;5101072;28;20236;-84
2023/02/13 06:46:55;;;;;;;29.20;19.10;;;;;;;;;;5114404;28;20276;-84
2023/02/13 06:49:22;;;;;;;41.40;29.27;;;;;;;;;;5100476;28;20301;-85
2023/02/13 06:51:49;;;;;;;24.60;18.33;;;;;;;;;;5096021;28;20204;-85
2023/02/13 06:54:16;;;;;;;18.17;13.70;;;;;;;;;;5113858;28;20251;-85
2023/02/13 06:56:43;;;;;;;16.73;11.77;;;;;;;;;;5114576;28;20260;-85
2023/02/13 06:59:11;;;;;;;19.43;12.87;;;;;;;;;;5114467;28;20215;-86
2023/02/13 07:01:38;;;;;;;15.73;10.67;;;;;;;;;;5113673;28;20200;-85
2023/02/13 07:04:05;;;;;;;20.03;12.40;;;;;;;;;;5114035;28;20228;-85
2023/02/13 07:06:32;;;;;;;14.50;11.03;;;;;;;;;;5114270;28;20203;-84
2023/02/13 07:08:58;;;;;;;17.57;13.33;;;;;;;;;;5113781;28;20731;-83
2023/02/13 07:11:25;;;;;;;18.13;14.77;;;;;;;;;;5113703;28;20264;-83
2023/02/13 07:13:52;;;;;;;17.30;11.67;;;;;;;;;;5097231;28;21098;-83
2023/02/13 07:16:20;;;;;;;17.20;11.63;;;;;;;;;;5093354;28;20197;-82
2023/02/13 07:18:47;;;;;;;18.20;11.30;;;;;;;;;;5093361;28;20220;-81
2023/02/13 07:21:14;;;;;;;16.17;10.57;;;;;;;;;;5093178;28;20212;-81
2023/02/13 07:23:42;;;;;;;19.63;13.53;;;;;;;;;;5109814;28;20219;-81
2023/02/13 07:26:09;;;;;;;15.33;10.60;;;;;;;;;;5102070;28;20196;-81
2023/02/13 07:28:38;;;;;;;16.03;11.57;;;;;;;;;;5110539;28;20682;-80
2023/02/13 07:31:05;;;;;;;17.03;11.63;;;;;;;;;;5112730;28;20199;-80
2023/02/13 07:33:34;;;;;;;24.40;14.57;;;;;;;;;;5099755;28;20818;-80
2023/02/13 07:36:02;;;;;;;17.07;11.20;;;;;;;;;;5101138;28;20204;-80
2023/02/13 07:38:29;;;;;;;21.23;13.00;;;;;;;;;;5111936;28;20200;-80
2023/02/13 07:40:58;;;;;;;19.10;11.07;;;;;;;;;;5099905;28;20761;-80
2023/02/13 07:43:25;;;;;;;16.07;12.33;;;;;;;;;;5112428;28;20268;-80
2023/02/13 07:45:54;;;;;;;17.47;11.40;;;;;;;;;;5100017;28;20293;-80
2023/02/13 07:48:21;;;;;;;14.40;10.90;;;;;;;;;;5112499;28;20286;-80
2023/02/13 07:50:49;;;;;;;12.03;10.00;;;;;;;;;;5112037;28;20204;-80
2023/02/13 07:53:16;;;;;;;14.73;11.27;;;;;;;;;;5099129;28;20199;-80
2023/02/13 07:55:43;;;;;;;13.67;11.03;;;;;;;;;;5098823;28;20756;-80
2023/02/13 07:58:09;;;;;;;16.73;10.80;;;;;;;;;;5112475;28;20689;-80
2023/02/13 08:00:37;;;;;;;15.47;10.53;;;;;;;;;;5112182;28;20720;-80
2023/02/13 08:03:04;;;;;;;13.53;9.73;;;;;;;;;;5105115;28;20239;-80
2023/02/13 08:05:32;;;;;;;18.10;12.10;;;;;;;;;;5106724;28;20196;-80
2023/02/13 08:08:00;;;;;;;15.27;10.07;;;;;;;;;;5112797;28;20251;-79
2023/02/13 08:13:13;;;;;;;11.83;9.70;;;;;;;;;;5102643;28;20214;-79
2023/02/13 08:15:39;;;;;;;14.50;10.70;;;;;;;;;;5094338;28;20196;-79
2023/02/13 08:18:06;;;;;;;13.63;9.93;;;;;;;;;;5103449;28;20214;-80
2023/02/13 08:20:33;;;;;;;14.13;9.93;;;;;;;;;;5107343;28;20233;-80
2023/02/13 08:23:04;;;;;;;18.13;11.20;;;;;;;;;;5091842;28;20239;-79
2023/02/13 08:25:32;;;;;;;18.10;12.40;;;;;;;;;;5091659;28;20203;-79
2023/02/13 08:27:59;;;;;;;21.67;13.47;;;;;;;;;;5091865;28;20647;-79
2023/02/13 08:30:26;;;;;;;20.07;13.80;;;;;;;;;;5097284;28;20249;-79
2023/02/13 08:32:52;;;;;;;17.10;11.87;;;;;;;;;;5099156;28;20200;-79
2023/02/13 08:35:19;;;;;;;17.73;13.17;;;;;;;;;;5096985;28;20199;-80
2023/02/13 08:37:46;;;;;;;16.13;11.23;;;;;;;;;;5099156;28;20200;-79
2023/02/13 08:40:14;;;;;;;14.43;10.77;;;;;;;;;;5091129;28;20196;-79
2023/02/13 08:42:42;;;;;;;12.53;10.13;;;;;;;;;;5091292;28;20220;-79
2023/02/13 08:45:10;;;;;;;15.33;10.50;;;;;;;;;;5090928;28;20255;-79
2023/02/13 08:47:38;;;;;;;14.87;10.57;;;;;;;;;;5091608;28;20226;-79
2023/02/13 08:50:06;;;;;;;14.47;9.23;;;;;;;;;;5111980;28;20554;-79
2023/02/13 08:52:33;;;;;;;14.90;10.57;;;;;;;;;;5111303;28;20261;-80
2023/02/13 08:55:02;;;;;;;12.77;10.33;;;;;;;;;;5111762;28;20203;-79
2023/02/13 08:57:31;;;;;;;12.80;9.67;;;;;;;;;;5097905;28;20289;-79
2023/02/13 08:59:57;;;;;;;16.93;10.57;;;;;;;;;;5111734;28;20227;-79
2023/02/13 09:02:27;;;;;;;11.90;9.13;;;;;;;;;;5095543;28;20228;-79
2023/02/13 09:04:54;;;;;;;11.43;9.77;;;;;;;;;;5091051;28;20200;-80
2023/02/13 09:07:20;;;;;;;15.03;9.57;;;;;;;;;;5106801;28;20635;-79
2023/02/13 09:09:47;;;;;;;14.57;9.90;;;;;;;;;;5101762;28;20212;-79
2023/02/13 09:12:14;;;;;;;11.57;8.70;;;;;;;;;;5090703;28;20204;-79
2023/02/13 09:14:42;;;;;;;15.87;10.33;;;;;;;;;;5100730;28;20203;-79
2023/02/13 09:17:09;;;;;;;15.77;10.33;;;;;;;;;;5107425;28;20196;-79
2023/02/13 09:19:36;;;;;;;67.90;34.63;;;;;;;;;;5101772;28;20208;-79
2023/02/13 09:22:05;;;;;;;29.73;15.63;;;;;;;;;;5093563;28;20203;-81
2023/02/13 09:24:32;;;;;;;31.93;18.93;;;;;;;;;;5091386;28;20304;-79
2023/02/13 09:26:58;;;;;;;11.63;9.73;;;;;;;;;;5109036;28;20643;-79
2023/02/13 09:29:29;;;;;;;11.70;9.10;;;;;;;;;;5099117;28;20225;-79
2023/02/13 09:31:57;;;;;;;13.20;8.57;;;;;;;;;;5104708;28;20664;-79
2023/02/13 09:34:24;;;;;;;15.70;10.60;;;;;;;;;;5103770;28;20210;-79
2023/02/13 09:36:51;;;;;;;19.30;14.53;;;;;;;;;;5090831;28;20691;-79
2023/02/13 09:39:18;;;;;;;13.60;9.73;;;;;;;;;;5090636;28;20204;-79
2023/02/13 09:41:47;;;;;;;18.27;10.50;;;;;;;;;;5104066;28;20725;-79
2023/02/13 09:44:32;;;;;;;11.27;8.63;;;;;;;;;;5091058;28;20232;-79
2023/02/13 09:47:02;;;;;;;14.37;10.03;;;;;;;;;;5110731;28;20203;-79
2023/02/13 09:49:32;;;;;;;13.63;10.87;;;;;;;;;;5100925;28;20203;-79
2023/02/13 09:51:59;;;;;;;12.00;8.83;;;;;;;;;;5104374;28;20206;-79
2023/02/13 09:54:30;;;;;;;10.87;7.07;;;;;;;;;;5094567;28;20208;-79
2023/02/13 09:57:00;;;;;;;13.40;10.93;;;;;;;;;;5094596;28;20215;-79
2023/02/13 09:59:39;;;;;;;13.63;10.13;;;;;;;;;;5113854;28;20673;-79
2023/02/13 10:02:21;;;;;;;11.27;8.77;;;;;;;;;;5100810;28;20192;-79
2023/02/13 10:04:53;;;;;;;11.50;8.47;;;;;;;;;;5105389;28;20637;-79
2023/02/13 10:07:25;;;;;;;13.10;8.40;;;;;;;;;;5097880;28;20726;-79
2023/02/13 10:09:58;;;;;;;11.90;9.03;;;;;;;;;;5103340;28;20203;-79
2023/02/13 10:12:43;;;;;;;16.00;9.00;;;;;;;;;;5112185;28;20195;-79
2023/02/13 10:15:17;;;;;;;11.13;9.00;;;;;;;;;;5113640;28;20207;-79
2023/02/13 10:17:48;;;;;;;9.80;7.57;;;;;;;;;;5102575;28;20200;-78
2023/02/13 10:20:25;;;;;;;11.87;8.07;;;;;;;;;;5114261;28;20195;-79
2023/02/13 10:22:55;;;;;;;11.50;8.20;;;;;;;;;;5104173;28;20219;-79
2023/02/13 10:25:24;;;;;;;9.40;6.73;;;;;;;;;;5098253;28;20278;-79
2023/02/13 10:27:54;;;;;;;76.33;39.13;;;;;;;;;;5114558;28;20204;-78
2023/02/13 10:30:23;;;;;;;27.07;18.37;;;;;;;;;;5095012;28;20215;-79
2023/02/13 10:33:10;;;;;;;21.90;13.80;;;;;;;;;;5106588;28;20268;-79
2023/02/13 10:35:38;;;;;;;11.33;7.97;;;;;;;;;;5093703;28;20211;-79
2023/02/13 10:38:12;;;;;;;17.37;8.90;;;;;;;;;;5096139;28;20254;-79
2023/02/13 10:40:46;;;;;;;7.33;6.57;;;;;;;;;;5114083;28;20206;-79
2023/02/13 10:43:19;;;;;;;11.20;7.17;;;;;;;;;;5100349;28;20272;-79
2023/02/13 10:45:54;;;;;;;11.37;8.10;;;;;;;;;;5101818;28;20232;-79
2023/02/13 10:48:33;;;;;;;9.00;7.27;;;;;;;;;;5100329;28;20742;-79
2023/02/13 10:51:05;;;;;;;12.50;8.23;;;;;;;;;;5113495;28;20195;-79
2023/02/13 10:53:42;;;;;;;9.77;8.00;;;;;;;;;;5113846;28;20226;-79
2023/02/13 10:56:24;;;;;;;10.63;7.67;;;;;;;;;;5109440;28;20200;-79
2023/02/13 10:58:59;;;;;;;10.27;6.10;;;;;;;;;;5105883;28;20199;-79
2023/02/13 11:01:31;;;;;;;12.10;7.77;;;;;;;;;;5105862;28;20200;-79
2023/02/13 11:04:06;;;;;;;8.77;6.90;;;;;;;;;;5106878;28;20211;-79
2023/02/13 11:06:36;;;;;;;9.97;6.90;;;;;;;;;;5092924;28;20211;-79
2023/02/13 11:09:05;;;;;;;8.83;7.27;;;;;;;;;;5096520;28;20628;-80
2023/02/13 11:11:33;;;;;;;9.27;7.73;;;;;;;;;;5103217;28;20196;-79
2023/02/13 11:14:14;;;;;;;7.63;6.83;;;;;;;;;;5097103;28;20687;-79
2023/02/13 11:16:47;;;;;;;7.20;6.00;;;;;;;;;;5113086;28;20203;-79
2023/02/13 11:19:20;;;;;;;11.73;7.00;;;;;;;;;;5113439;28;20200;-79
2023/02/13 11:21:48;;;;;;;12.53;7.03;;;;;;;;;;5098424;28;20208;-79
2023/02/13 11:24:21;;;;;;;7.30;6.27;;;;;;;;;;5092478;28;20220;-79
2023/02/13 11:26:53;;;;;;;8.87;7.10;;;;;;;;;;5093133;28;20254;-78
2023/02/13 11:29:24;;;;;;;12.67;7.63;;;;;;;;;;5103193;28;20290;-78
2023/02/13 11:32:06;;;;;;;12.77;7.27;;;;;;;;;;5099125;28;20199;-79
2023/02/13 11:34:34;;;;;;;10.43;7.00;;;;;;;;;;5113517;28;20199;-79
2023/02/13 11:37:22;;;;;;;11.70;6.07;;;;;;;;;;5106250;28;20196;-78
2023/02/13 11:39:51;;;;;;;8.97;6.60;;;;;;;;;;5095900;28;20203;-79
2023/02/13 11:42:22;;;;;;;10.60;7.67;;;;;;;;;;5112594;28;20199;-79
2023/02/13 11:44:51;;;;;;;11.07;7.13;;;;;;;;;;5099169;28;20242;-79
2023/02/13 11:47:30;;;;;;;7.27;5.90;;;;;;;;;;5113023;28;20206;-79
2023/02/13 11:49:58;;;;;;;9.73;7.17;;;;;;;;;;5099133;28;20195;-79
2023/02/13 11:52:28;;;;;;;10.47;7.87;;;;;;;;;;5098812;28;20204;-80
2023/02/13 11:54:59;;;;;;;10.77;7.50;;;;;;;;;;5092351;28;20759;-80
2023/02/13 11:57:30;;;;;;;11.23;7.83;;;;;;;;;;5093411;28;20196;-79
2023/02/13 11:59:58;;;;;;;11.30;7.93;;;;;;;;;;5103608;28;20698;-79
2023/02/13 12:02:27;;;;;;;8.70;6.93;;;;;;;;;;5105753;28;20671;-79
2023/02/13 12:04:55;;;;;;;8.20;6.90;;;;;;;;;;5101801;28;20590;-79
2023/02/13 12:07:28;;;;;;;9.03;7.20;;;;;;;;;;5095602;28;20204;-79
2023/02/13 12:10:01;;;;;;;7.53;6.77;;;;;;;;;;5091949;28;20742;-79
2023/02/13 12:12:33;;;;;;;7.53;6.50;;;;;;;;;;5091506;28;20196;-79
2023/02/13 12:15:03;;;;;;;8.33;6.97;;;;;;;;;;5092127;28;20204;-80
2023/02/13 12:17:30;;;;;;;9.63;6.93;;;;;;;;;;5091900;28;20189;-79
2023/02/13 12:19:57;;;;;;;8.17;7.20;;;;;;;;;;5105265;28;20196;-79
2023/02/13 12:22:43;;;;;;;7.00;6.17;;;;;;;;;;5092002;28;20196;-79
2023/02/13 12:25:32;;;;;;;9.43;6.97;;;;;;;;;;5091372;28;20726;-79
2023/02/13 12:28:06;;;;;;;19.47;12.93;;;;;;;;;;5104784;28;20203;-78
2023/02/13 12:30:50;;;;;;;9.17;7.27;;;;;;;;;;5104583;28;21139;-79
2023/02/13 12:33:26;;;;;;;7.87;5.80;;;;;;;;;;5104940;28;20211;-79
2023/02/13 12:35:57;;;;;;;9.07;7.53;;;;;;;;;;5091574;28;20648;-79
2023/02/13 12:38:45;;;;;;;8.70;6.60;;;;;;;;;;5091607;28;20192;-79
2023/02/13 12:41:19;;;;;;;7.47;6.40;;;;;;;;;;5092818;28;20200;-79
2023/02/13 12:44:03;;;;;;;7.33;5.90;;;;;;;;;;5102451;28;20710;-79
2023/02/13 12:46:34;;;;;;;9.07;6.80;;;;;;;;;;5109421;28;20203;-79
2023/02/13 12:49:18;;;;;;;8.07;5.93;;;;;;;;;;5099756;28;20215;-79
2023/02/13 12:51:52;;;;;;;8.80;7.07;;;;;;;;;;5103585;28;20253;-79
2023/02/13 12:54:34;;;;;;;22.60;14.17;;;;;;;;;;5093566;28;20257;-79
2023/02/13 12:57:20;;;;;;;8.90;6.63;;;;;;;;;;5099899;28;20200;-79
2023/02/13 13:00:06;;;;;;;8.53;6.30;;;;;;;;;;5104438;28;20635;-79
2023/02/13 13:03:03;;;;;;;8.67;5.90;;;;;;;;;;5094501;28;20257;-79
2023/02/13 13:05:45;;;;;;;7.30;6.23;;;;;;;;;;5096730;28;20228;-79
2023/02/13 13:08:30;;;;;;;7.83;6.70;;;;;;;;;;5091437;28;20208;-79
2023/02/13 13:11:15;;;;;;;9.13;6.07;;;;;;;;;;5103548;28;20203;-79
2023/02/13 13:13:52;;;;;;;12.57;9.40;;;;;;;;;;5104885;28;20214;-79
2023/02/13 13:16:25;;;;;;;7.13;5.93;;;;;;;;;;5090826;28;20265;-79
2023/02/13 13:18:59;;;;;;;11.43;8.57;;;;;;;;;;5090933;28;20212;-79
2023/02/13 13:21:33;;;;;;;12.63;9.60;;;;;;;;;;5091193;28;20272;-79
2023/02/13 13:24:04;;;;;;;11.30;7.73;;;;;;;;;;5090424;28;20720;-79
2023/02/13 13:26:36;;;;;;;9.60;6.80;;;;;;;;;;5091159;28;20698;-79
2023/02/13 13:29:06;;;;;;;6.60;5.57;;;;;;;;;;5111188;28;20249;-79
2023/02/13 13:31:35;;;;;;;8.53;6.57;;;;;;;;;;5097845;28;20254;-79
2023/02/13 13:34:05;;;;;;;8.37;6.37;;;;;;;;;;5111116;28;20678;-79
2023/02/13 13:36:38;;;;;;;10.23;8.07;;;;;;;;;;5094194;28;20249;-79
2023/02/13 13:39:09;;;;;;;9.33;6.83;;;;;;;;;;5102031;28;20675;-79
2023/02/13 13:41:41;;;;;;;6.83;6.03;;;;;;;;;;5092737;28;20203;-79
2023/02/13 13:44:25;;;;;;;9.73;6.60;;;;;;;;;;5091139;28;20239;-79
2023/02/13 13:46:57;;;;;;;10.33;7.10;;;;;;;;;;5099341;28;20195;-79
2023/02/13 13:49:40;;;;;;;11.17;7.13;;;;;;;;;;5094896;28;20204;-79
2023/02/13 13:52:18;;;;;;;8.73;5.20;;;;;;;;;;5103184;28;20203;-79
2023/02/13 13:54:50;;;;;;;8.07;6.50;;;;;;;;;;5110421;28;20623;-79
2023/02/13 13:57:18;;;;;;;7.47;5.97;;;;;;;;;;5097243;28;20595;-79
2023/02/13 14:00:23;;;;;;;8.07;6.73;;;;;;;;;;5110900;28;20670;-79
2023/02/13 14:02:51;;;;;;;9.53;6.87;;;;;;;;;;5105131;28;20207;-79
2023/02/13 14:05:26;;;;;;;8.50;6.40;;;;;;;;;;5103154;28;20654;-79
2023/02/13 14:07:55;;;;;;;8.00;6.87;;;;;;;;;;5097880;28;20210;-79
2023/02/13 14:11:01;;;;;;;10.70;7.43;;;;;;;;;;5109760;28;20196;-79
2023/02/13 14:13:34;;;;;;;10.73;5.80;;;;;;;;;;5028120;28;20268;-79
2023/02/13 14:16:01;;;;;;;8.47;7.00;;;;;;;;;;5035375;28;20267;-79
2023/02/13 14:18:29;;;;;;;7.33;6.57;;;;;;;;;;5070018;28;20204;-79
2023/02/13 14:20:57;;;;;;;9.67;6.60;;;;;;;;;;5090866;28;20201;-79
2023/02/13 14:23:35;;;;;;;6.63;5.80;;;;;;;;;;5090518;28;20270;-79
2023/02/13 14:26:19;;;;;;;8.97;6.47;;;;;;;;;;5100374;28;20713;-79
2023/02/13 14:28:58;;;;;;;6.40;5.40;;;;;;;;;;5104527;28;20261;-79
2023/02/13 14:31:28;;;;;;;7.67;6.63;;;;;;;;;;5103710;28;20397;-79
2023/02/13 14:33:56;;;;;;;7.40;5.67;;;;;;;;;;5099620;28;20212;-79
2023/02/13 14:36:25;;;;;;;10.27;6.97;;;;;;;;;;5100202;28;20204;-79
2023/02/13 14:38:55;;;;;;;9.50;7.07;;;;;;;;;;5105661;28;20652;-79
2023/02/13 14:41:46;;;;;;;8.13;6.40;;;;;;;;;;5093769;28;20230;-79
2023/02/13 14:44:20;;;;;;;7.60;6.27;;;;;;;;;;5106819;28;20231;-79
2023/02/13 14:46:48;;;;;;;7.47;6.27;;;;;;;;;;5100506;28;20286;-79
2023/02/13 14:49:17;;;;;;;8.87;6.77;;;;;;;;;;5113406;28;20286;-79
2023/02/13 14:51:47;;;;;;;7.33;6.20;;;;;;;;;;5101198;28;20204;-79
2023/02/13 14:54:20;;;;;;;9.30;6.80;;;;;;;;;;5098627;28;20678;-79
2023/02/13 14:56:49;;;;;;;10.00;8.07;;;;;;;;;;5102435;28;20662;-79
2023/02/13 14:59:19;;;;;;;8.47;6.63;;;;;;;;;;5111268;28;20204;-79
2023/02/13 15:01:51;;;;;;;10.43;7.30;;;;;;;;;;5093665;28;20201;-79
2023/02/13 15:04:22;;;;;;;16.10;10.80;;;;;;;;;;5098061;28;20220;-79
2023/02/13 15:06:50;;;;;;;9.47;8.03;;;;;;;;;;5101496;28;20594;-79
2023/02/13 15:09:31;;;;;;;11.50;10.00;;;;;;;;;;5093425;28;20200;-79
2023/02/13 15:11:58;;;;;;;10.30;9.30;;;;;;;;;;5093640;28;20239;-79
2023/02/13 15:14:32;;;;;;;16.87;12.03;;;;;;;;;;5105869;28;20200;-79
2023/02/13 15:17:04;;;;;;;28.57;15.93;;;;;;;;;;5106680;28;20203;-78
2023/02/13 15:19:31;;;;;;;53.10;26.43;;;;;;;;;;5102974;28;20590;-79
2023/02/13 15:21:59;;;;;;;53.90;31.73;;;;;;;;;;5099706;28;20195;-79
2023/02/13 15:24:27;;;;;;;55.07;34.23;;;;;;;;;;5113352;28;20227;-79
2023/02/13 15:26:59;;;;;;;48.50;37.17;;;;;;;;;;5096001;28;20253;-79
2023/02/13 15:29:28;;;;;;;48.57;35.40;;;;;;;;;;5107584;28;20656;-79
2023/02/13 15:31:55;;;;;;;23.63;19.67;;;;;;;;;;5112841;28;20211;-79
2023/02/13 15:34:25;;;;;;;21.10;18.43;;;;;;;;;;5112859;28;20207;-79